sensor_id;sensor_type;location;lat;lon;timestamp;pressure;altitude;pressure_sealevel;temperature;humidity
12182;BME280;6154;51.550;12.138;2023-09-12T00:00:11;100106.78;;;22.53;52.90
12182;BME280;6154;51.550;12.138;2023-09-12T00:02:41;100112.88;;;22.55;52.71
12182;BME280;6154;51.550;12.138;2023-09-12T00:05:09;100120.62;;;22.50;53.11
12182;BME280;6154;51.550;12.138;2023-09-12T00:07:39;100114.03;;;22.45;53.79
12182;BME280;6154;51.550;12.138;2023-09-12T00:10:08;100117.59;;;22.37;54.21
12182;BME280;6154;51.550;12.138;2023-09-12T00:12:36;100117.06;;;22.33;54.12
12182;BME280;6154;51.550;12.138;2023-09-12T00:15:05;100118.75;;;22.34;53.55
12182;BME280;6154;51.550;12.138;2023-09-12T00:17:33;100118.75;;;22.34;53.24
12182;BME280;6154;51.550;12.138;2023-09-12T00:20:05;100110.00;;;22.32;53.07
12182;BME280;6154;51.550;12.138;2023-09-12T00:22:35;100113.72;;;22.31;53.42
12182;BME280;6154;51.550;12.138;2023-09-12T00:25:03;100123.47;;;22.24;53.82
12182;BME280;6154;51.550;12.138;2023-09-12T00:27:31;100118.41;;;22.21;53.27
12182;BME280;6154;51.550;12.138;2023-09-12T00:30:00;100112.34;;;22.19;53.79
12182;BME280;6154;51.550;12.138;2023-09-12T00:32:28;100114.22;;;22.19;53.42
12182;BME280;6154;51.550;12.138;2023-09-12T00:34:56;100116.41;;;22.15;53.83
12182;BME280;6154;51.550;12.138;2023-09-12T00:37:25;100112.34;;;22.11;53.98
12182;BME280;6154;51.550;12.138;2023-09-12T00:39:53;100107.28;;;22.08;54.02
12182;BME280;6154;51.550;12.138;2023-09-12T00:42:24;100118.37;;;22.05;54.36
12182;BME280;6154;51.550;12.138;2023-09-12T00:44:53;100111.63;;;22.01;54.57
12182;BME280;6154;51.550;12.138;2023-09-12T00:47:22;100110.78;;;22.00;54.21
12182;BME280;6154;51.550;12.138;2023-09-12T00:49:51;100107.88;;;21.94;54.23
12182;BME280;6154;51.550;12.138;2023-09-12T00:52:25;100107.75;;;21.95;54.55
12182;BME280;6154;51.550;12.138;2023-09-12T00:54:54;100107.06;;;21.93;53.88
12182;BME280;6154;51.550;12.138;2023-09-12T00:57:23;100107.22;;;21.92;54.74
12182;BME280;6154;51.550;12.138;2023-09-12T00:59:53;100101.16;;;21.90;54.62
12182;BME280;6154;51.550;12.138;2023-09-12T01:02:21;100111.09;;;21.89;54.37
12182;BME280;6154;51.550;12.138;2023-09-12T02:13:59;100080.41;;;21.66;56.80
12182;BME280;6154;51.550;12.138;2023-09-12T02:16:29;100083.41;;;21.63;55.21
12182;BME280;6154;51.550;12.138;2023-09-12T02:18:57;100084.75;;;21.59;55.07
12182;BME280;6154;51.550;12.138;2023-09-12T02:21:25;100077.16;;;21.54;55.44
12182;BME280;6154;51.550;12.138;2023-09-12T02:23:53;100080.00;;;21.52;54.68
12182;BME280;6154;51.550;12.138;2023-09-12T02:26:21;100082.38;;;21.47;54.42
12182;BME280;6154;51.550;12.138;2023-09-12T02:28:50;100081.84;;;21.52;54.54
12182;BME280;6154;51.550;12.138;2023-09-12T02:31:19;100083.53;;;21.53;54.75
12182;BME280;6154;51.550;12.138;2023-09-12T02:33:47;100088.25;;;21.51;55.52
12182;BME280;6154;51.550;12.138;2023-09-12T02:36:16;100086.56;;;21.50;55.52
12182;BME280;6154;51.550;12.138;2023-09-12T02:38:44;100080.34;;;21.49;56.03
12182;BME280;6154;51.550;12.138;2023-09-12T02:41:12;100082.19;;;21.49;55.98
12182;BME280;6154;51.550;12.138;2023-09-12T02:43:41;100082.88;;;21.51;55.74
12182;BME280;6154;51.550;12.138;2023-09-12T02:46:09;100080.00;;;21.52;55.79
12182;BME280;6154;51.550;12.138;2023-09-12T02:48:38;100083.41;;;21.55;55.65
12182;BME280;6154;51.550;12.138;2023-09-12T02:51:07;100095.88;;;21.56;56.18
12182;BME280;6154;51.550;12.138;2023-09-12T02:53:35;100094.69;;;21.58;56.46
12182;BME280;6154;51.550;12.138;2023-09-12T02:56:03;100096.38;;;21.59;56.74
12182;BME280;6154;51.550;12.138;2023-09-12T02:58:31;100091.31;;;21.64;56.36
12182;BME280;6154;51.550;12.138;2023-09-12T03:00:59;100100.78;;;21.68;56.46
12182;BME280;6154;51.550;12.138;2023-09-12T03:03:30;100098.09;;;21.68;56.13
12182;BME280;6154;51.550;12.138;2023-09-12T03:06:00;100093.38;;;21.70;56.21
12182;BME280;6154;51.550;12.138;2023-09-12T03:08:29;100092.34;;;21.71;56.16
12182;BME280;6154;51.550;12.138;2023-09-12T03:10:59;100099.44;;;21.72;56.18
12182;BME280;6154;51.550;12.138;2023-09-12T03:13:29;100093.19;;;21.72;56.38
12182;BME280;6154;51.550;12.138;2023-09-12T03:15:58;100093.19;;;21.72;56.31
12182;BME280;6154;51.550;12.138;2023-09-12T03:18:26;100082.75;;;21.69;56.42
12182;BME280;6154;51.550;12.138;2023-09-12T03:20:54;100085.63;;;21.67;56.87
12182;BME280;6154;51.550;12.138;2023-09-12T03:23:24;100081.41;;;21.65;57.70
12182;BME280;6154;51.550;12.138;2023-09-12T03:25:53;100078.19;;;21.61;57.16
12182;BME280;6154;51.550;12.138;2023-09-12T03:28:21;100073.81;;;21.60;56.42
12182;BME280;6154;51.550;12.138;2023-09-12T03:30:50;100071.13;;;21.60;55.96
12182;BME280;6154;51.550;12.138;2023-09-12T03:33:18;100065.72;;;21.60;56.54
12182;BME280;6154;51.550;12.138;2023-09-12T03:35:46;100064.72;;;21.61;56.42
12182;BME280;6154;51.550;12.138;2023-09-12T03:38:15;100066.06;;;21.57;56.98
12182;BME280;6154;51.550;12.138;2023-09-12T03:40:44;100070.63;;;21.57;56.40
12182;BME280;6154;51.550;12.138;2023-09-12T03:43:12;100068.41;;;21.52;56.21
12182;BME280;6154;51.550;12.138;2023-09-12T03:45:41;100063.84;;;21.52;56.44
12182;BME280;6154;51.550;12.138;2023-09-12T03:48:09;100062.16;;;21.51;56.20
12182;BME280;6154;51.550;12.138;2023-09-12T03:50:38;100061.88;;;21.55;56.20
12182;BME280;6154;51.550;12.138;2023-09-12T03:53:06;100055.59;;;21.54;56.18
12182;BME280;6154;51.550;12.138;2023-09-12T03:55:34;100060.84;;;21.56;56.24
12182;BME280;6154;51.550;12.138;2023-09-12T03:58:04;100062.69;;;21.55;56.44
12182;BME280;6154;51.550;12.138;2023-09-12T04:00:32;100064.84;;;21.51;56.33
12182;BME280;6154;51.550;12.138;2023-09-12T04:03:01;100059.62;;;21.50;56.83
12182;BME280;6154;51.550;12.138;2023-09-12T04:05:29;100059.81;;;21.48;57.69
12182;BME280;6154;51.550;12.138;2023-09-12T04:07:57;100068.06;;;21.47;57.61
12182;BME280;6154;51.550;12.138;2023-09-12T04:10:26;100065.66;;;21.44;57.60
12182;BME280;6154;51.550;12.138;2023-09-12T04:12:54;100062.31;;;21.42;57.49
12182;BME280;6154;51.550;12.138;2023-09-12T04:15:23;100070.56;;;21.40;57.74
12182;BME280;6154;51.550;12.138;2023-09-12T04:17:51;100078.28;;;21.35;57.76
12182;BME280;6154;51.550;12.138;2023-09-12T04:20:20;100075.22;;;21.30;58.42
12182;BME280;6154;51.550;12.138;2023-09-12T04:22:48;100077.41;;;21.27;57.73
12182;BME280;6154;51.550;12.138;2023-09-12T04:25:16;100082.09;;;21.24;57.78
12182;BME280;6154;51.550;12.138;2023-09-12T04:27:47;100083.06;;;21.23;57.83
12182;BME280;6154;51.550;12.138;2023-09-12T04:30:15;100078.69;;;21.22;57.62
12182;BME280;6154;51.550;12.138;2023-09-12T04:32:45;100087.09;;;21.19;58.15
12182;BME280;6154;51.550;12.138;2023-09-12T04:35:13;100095.84;;;21.21;57.93
12182;BME280;6154;51.550;12.138;2023-09-12T04:37:41;100095.00;;;21.21;57.94
12182;BME280;6154;51.550;12.138;2023-09-12T04:40:10;100099.72;;;21.19;58.13
12182;BME280;6154;51.550;12.138;2023-09-12T04:42:38;100087.41;;;21.16;59.03
12182;BME280;6154;51.550;12.138;2023-09-12T04:45:07;100094.66;;;21.16;58.78
12182;BME280;6154;51.550;12.138;2023-09-12T04:47:36;100100.50;;;21.11;59.86
12182;BME280;6154;51.550;12.138;2023-09-12T04:50:06;100098.59;;;21.04;60.36
12182;BME280;6154;51.550;12.138;2023-09-12T04:52:34;100104.25;;;20.92;61.31
12182;BME280;6154;51.550;12.138;2023-09-12T04:55:03;100106.44;;;20.89;60.39
12182;BME280;6154;51.550;12.138;2023-09-12T04:57:31;100101.22;;;20.87;59.63
12182;BME280;6154;51.550;12.138;2023-09-12T05:00:00;100102.06;;;20.88;59.57
12182;BME280;6154;51.550;12.138;2023-09-12T05:02:30;100101.22;;;20.87;58.86
12182;BME280;6154;51.550;12.138;2023-09-12T05:04:58;100100.22;;;20.88;58.73
12182;BME280;6154;51.550;12.138;2023-09-12T05:07:28;100101.22;;;20.87;58.95
12182;BME280;6154;51.550;12.138;2023-09-12T05:09:56;100109.13;;;20.89;58.89
12182;BME280;6154;51.550;12.138;2023-09-12T05:12:24;100110.81;;;20.90;58.24
12182;BME280;6154;51.550;12.138;2023-09-12T05:14:53;100110.47;;;20.93;58.22
12182;BME280;6154;51.550;12.138;2023-09-12T05:17:21;100116.41;;;20.97;58.33
12182;BME280;6154;51.550;12.138;2023-09-12T05:19:49;100122.31;;;21.00;58.00
12182;BME280;6154;51.550;12.138;2023-09-12T05:22:18;100117.16;;;21.07;57.92
12182;BME280;6154;51.550;12.138;2023-09-12T05:24:48;100117.31;;;21.13;58.66
12182;BME280;6154;51.550;12.138;2023-09-12T05:27:16;100121.87;;;21.13;59.05
12182;BME280;6154;51.550;12.138;2023-09-12T05:29:45;100126.97;;;21.24;58.35
12182;BME280;6154;51.550;12.138;2023-09-12T05:32:13;100122.50;;;21.33;58.19
12182;BME280;6154;51.550;12.138;2023-09-12T05:34:42;100123.41;;;21.41;58.89
12182;BME280;6154;51.550;12.138;2023-09-12T05:37:12;100127.97;;;21.49;58.92
12182;BME280;6154;51.550;12.138;2023-09-12T05:39:40;100124.47;;;21.57;58.43
12182;BME280;6154;51.550;12.138;2023-09-12T05:42:10;100129.72;;;21.66;58.20
12182;BME280;6154;51.550;12.138;2023-09-12T05:44:39;100139.84;;;21.72;59.10
12182;BME280;6154;51.550;12.138;2023-09-12T05:47:07;100163.06;;;21.73;60.34
12182;BME280;6154;51.550;12.138;2023-09-12T05:49:35;100150.47;;;21.82;59.33
12182;BME280;6154;51.550;12.138;2023-09-12T05:52:04;100154.56;;;21.86;60.64
12182;BME280;6154;51.550;12.138;2023-09-12T05:54:32;100149.16;;;21.94;60.86
12182;BME280;6154;51.550;12.138;2023-09-12T05:57:01;100150.72;;;21.97;61.29
12182;BME280;6154;51.550;12.138;2023-09-12T05:59:32;100149.72;;;22.06;60.35
12182;BME280;6154;51.550;12.138;2023-09-12T06:02:01;100151.75;;;22.12;60.48
12182;BME280;6154;51.550;12.138;2023-09-12T06:04:29;100159.19;;;22.18;60.58
12182;BME280;6154;51.550;12.138;2023-09-12T06:06:58;100155.84;;;22.32;60.00
12182;BME280;6154;51.550;12.138;2023-09-12T06:09:26;100158.38;;;22.42;59.83
12182;BME280;6154;51.550;12.138;2023-09-12T06:11:55;100166.47;;;22.50;61.11
12182;BME280;6154;51.550;12.138;2023-09-12T06:14:23;100160.75;;;22.61;59.52
12182;BME280;6154;51.550;12.138;2023-09-12T06:16:52;100160.56;;;22.71;58.97
12182;BME280;6154;51.550;12.138;2023-09-12T06:19:21;100160.41;;;22.81;58.53
12182;BME280;6154;51.550;12.138;2023-09-12T06:21:50;100162.28;;;22.88;58.77
12182;BME280;6154;51.550;12.138;2023-09-12T06:24:19;100165.66;;;22.99;58.07
12182;BME280;6154;51.550;12.138;2023-09-12T06:26:49;100162.59;;;23.10;59.57
12182;BME280;6154;51.550;12.138;2023-09-12T06:29:20;100169.31;;;23.22;58.63
12182;BME280;6154;51.550;12.138;2023-09-12T06:31:48;100169.97;;;23.32;59.13
12182;BME280;6154;51.550;12.138;2023-09-12T06:34:18;100175.69;;;23.45;59.75
12182;BME280;6154;51.550;12.138;2023-09-12T06:36:46;100169.37;;;23.53;58.56
12182;BME280;6154;51.550;12.138;2023-09-12T06:39:14;100175.13;;;23.66;58.30
12182;BME280;6154;51.550;12.138;2023-09-12T06:41:42;100175.06;;;23.74;59.21
12182;BME280;6154;51.550;12.138;2023-09-12T06:44:10;100185.34;;;23.87;59.57
12182;BME280;6154;51.550;12.138;2023-09-12T06:46:38;100190.34;;;23.98;59.77
12182;BME280;6154;51.550;12.138;2023-09-12T06:49:07;100182.47;;;24.12;59.82
12182;BME280;6154;51.550;12.138;2023-09-12T06:51:36;100185.81;;;24.22;59.95
12182;BME280;6154;51.550;12.138;2023-09-12T06:54:05;100188.44;;;24.38;60.00
12182;BME280;6154;51.550;12.138;2023-09-12T06:56:33;100181.59;;;24.50;59.71
12182;BME280;6154;51.550;12.138;2023-09-12T06:59:05;100185.72;;;24.61;59.71
12182;BME280;6154;51.550;12.138;2023-09-12T07:01:34;100185.13;;;24.74;59.73
12182;BME280;6154;51.550;12.138;2023-09-12T07:04:02;100187.09;;;24.80;59.71
12182;BME280;6154;51.550;12.138;2023-09-12T07:06:31;100197.06;;;25.02;58.86
12182;BME280;6154;51.550;12.138;2023-09-12T07:09:01;100198.44;;;25.21;58.85
12182;BME280;6154;51.550;12.138;2023-09-12T07:11:30;100203.31;;;25.26;59.96
12182;BME280;6154;51.550;12.138;2023-09-12T07:13:58;100207.16;;;25.46;58.94
12182;BME280;6154;51.550;12.138;2023-09-12T07:16:26;100211.41;;;25.55;59.00
12182;BME280;6154;51.550;12.138;2023-09-12T07:18:55;100202.94;;;25.73;59.20
12182;BME280;6154;51.550;12.138;2023-09-12T07:21:23;100203.84;;;25.95;58.73
12182;BME280;6154;51.550;12.138;2023-09-12T07:23:52;100199.66;;;25.92;58.65
12182;BME280;6154;51.550;12.138;2023-09-12T07:26:21;100201.78;;;26.12;59.09
12182;BME280;6154;51.550;12.138;2023-09-12T07:28:54;100199.97;;;26.19;59.00
12182;BME280;6154;51.550;12.138;2023-09-12T07:31:22;100187.38;;;26.32;59.07
12182;BME280;6154;51.550;12.138;2023-09-12T07:33:50;100184.97;;;26.59;58.59
12182;BME280;6154;51.550;12.138;2023-09-12T07:36:19;100179.28;;;26.54;59.09
12182;BME280;6154;51.550;12.138;2023-09-12T07:38:47;100181.59;;;26.78;58.59
12182;BME280;6154;51.550;12.138;2023-09-12T07:41:15;100184.19;;;26.86;58.51
12182;BME280;6154;51.550;12.138;2023-09-12T07:43:45;100179.44;;;26.95;58.69
12182;BME280;6154;51.550;12.138;2023-09-12T07:46:13;100187.94;;;27.07;58.54
12182;BME280;6154;51.550;12.138;2023-09-12T07:48:41;100178.59;;;27.16;58.27
12182;BME280;6154;51.550;12.138;2023-09-12T07:51:13;100182.66;;;27.27;58.17
12182;BME280;6154;51.550;12.138;2023-09-12T07:53:42;100191.75;;;27.47;58.12
12182;BME280;6154;51.550;12.138;2023-09-12T07:56:11;100197.34;;;27.73;57.72
12182;BME280;6154;51.550;12.138;2023-09-12T07:58:39;100197.34;;;27.67;57.63
12182;BME280;6154;51.550;12.138;2023-09-12T08:01:09;100201.75;;;27.74;57.34
12182;BME280;6154;51.550;12.138;2023-09-12T08:03:39;100204.09;;;27.77;57.38
12182;BME280;6154;51.550;12.138;2023-09-12T08:06:08;100194.72;;;27.87;56.89
12182;BME280;6154;51.550;12.138;2023-09-12T08:08:37;100203.41;;;28.17;56.82
12182;BME280;6154;51.550;12.138;2023-09-12T08:11:05;100197.31;;;28.15;56.80
12182;BME280;6154;51.550;12.138;2023-09-12T08:13:33;100197.22;;;28.43;56.66
12182;BME280;6154;51.550;12.138;2023-09-12T08:16:01;100209.38;;;28.53;56.38
12182;BME280;6154;51.550;12.138;2023-09-12T08:18:31;100207.72;;;28.66;56.31
12182;BME280;6154;51.550;12.138;2023-09-12T08:20:59;100209.81;;;28.63;56.36
12182;BME280;6154;51.550;12.138;2023-09-12T08:23:27;100210.91;;;28.69;56.19
12182;BME280;6154;51.550;12.138;2023-09-12T08:25:55;100217.41;;;28.88;55.84
12182;BME280;6154;51.550;12.138;2023-09-12T08:28:24;100222.03;;;28.87;55.91
12182;BME280;6154;51.550;12.138;2023-09-12T08:30:52;100218.28;;;29.02;55.67
12182;BME280;6154;51.550;12.138;2023-09-12T08:33:20;100237.75;;;28.92;55.93
12182;BME280;6154;51.550;12.138;2023-09-12T08:35:54;100238.62;;;28.99;55.71
12182;BME280;6154;51.550;12.138;2023-09-12T08:38:22;100235.00;;;28.79;55.83
12182;BME280;6154;51.550;12.138;2023-09-12T08:40:50;100242.16;;;29.13;55.62
12182;BME280;6154;51.550;12.138;2023-09-12T08:43:20;100241.97;;;29.14;55.52
12182;BME280;6154;51.550;12.138;2023-09-12T08:45:48;100247.63;;;29.33;55.16
12182;BME280;6154;51.550;12.138;2023-09-12T08:48:17;100238.38;;;29.34;55.17
12182;BME280;6154;51.550;12.138;2023-09-12T08:50:51;100245.53;;;29.48;55.07
12182;BME280;6154;51.550;12.138;2023-09-12T08:53:22;100243.84;;;29.47;54.85
12182;BME280;6154;51.550;12.138;2023-09-12T08:55:51;100241.09;;;29.67;54.75
12182;BME280;6154;51.550;12.138;2023-09-12T08:58:20;100241.69;;;29.82;54.30
12182;BME280;6154;51.550;12.138;2023-09-12T09:00:50;100239.16;;;29.81;54.50
12182;BME280;6154;51.550;12.138;2023-09-12T09:03:19;100233.03;;;29.85;53.94
12182;BME280;6154;51.550;12.138;2023-09-12T09:05:49;100230.97;;;29.87;54.13
12182;BME280;6154;51.550;12.138;2023-09-12T09:08:20;100232.22;;;29.85;53.98
12182;BME280;6154;51.550;12.138;2023-09-12T09:10:56;100229.09;;;29.81;53.65
12182;BME280;6154;51.550;12.138;2023-09-12T09:13:24;100223.97;;;30.11;52.83
12182;BME280;6154;51.550;12.138;2023-09-12T09:16:12;100222.97;;;29.86;52.73
12182;BME280;6154;51.550;12.138;2023-09-12T09:18:54;100224.22;;;29.90;51.29
12182;BME280;6154;51.550;12.138;2023-09-12T09:21:24;100234.03;;;30.11;51.74
12182;BME280;6154;51.550;12.138;2023-09-12T09:23:54;100230.41;;;30.23;52.22
12182;BME280;6154;51.550;12.138;2023-09-12T09:26:23;100225.56;;;30.25;51.77
12182;BME280;6154;51.550;12.138;2023-09-12T09:29:05;100231.00;;;30.32;52.23
12182;BME280;6154;51.550;12.138;2023-09-12T09:31:55;100234.00;;;30.55;50.23
12182;BME280;6154;51.550;12.138;2023-09-12T09:34:24;100234.31;;;30.41;50.67
12182;BME280;6154;51.550;12.138;2023-09-12T09:36:55;100236.47;;;30.63;51.43
12182;BME280;6154;51.550;12.138;2023-09-12T09:39:25;100231.62;;;30.72;50.48
12182;BME280;6154;51.550;12.138;2023-09-12T09:41:56;100226.22;;;30.59;49.83
12182;BME280;6154;51.550;12.138;2023-09-12T09:44:26;100227.13;;;30.84;50.29
12182;BME280;6154;51.550;12.138;2023-09-12T09:46:58;100229.75;;;30.98;49.92
12182;BME280;6154;51.550;12.138;2023-09-12T09:49:28;100219.22;;;31.01;49.64
12182;BME280;6154;51.550;12.138;2023-09-12T09:51:58;100220.84;;;31.09;50.28
12182;BME280;6154;51.550;12.138;2023-09-12T09:54:26;100205.16;;;30.98;48.79
12182;BME280;6154;51.550;12.138;2023-09-12T09:56:56;100204.75;;;31.19;49.50
12182;BME280;6154;51.550;12.138;2023-09-12T09:59:26;100212.75;;;31.21;49.00
12182;BME280;6154;51.550;12.138;2023-09-12T10:01:56;100209.56;;;31.24;49.16
12182;BME280;6154;51.550;12.138;2023-09-12T10:04:27;100202.84;;;31.19;49.40
12182;BME280;6154;51.550;12.138;2023-09-12T10:06:57;100192.34;;;31.41;49.27
12182;BME280;6154;51.550;12.138;2023-09-12T10:09:27;100187.66;;;31.49;48.78
12182;BME280;6154;51.550;12.138;2023-09-12T10:11:57;100193.72;;;31.51;47.83
12182;BME280;6154;51.550;12.138;2023-09-12T10:14:27;100195.50;;;31.82;48.88
12182;BME280;6154;51.550;12.138;2023-09-12T10:17:00;100191.31;;;31.97;48.00
12182;BME280;6154;51.550;12.138;2023-09-12T10:19:38;100191.88;;;32.18;48.28
12182;BME280;6154;51.550;12.138;2023-09-12T10:22:10;100185.28;;;32.07;47.24
12182;BME280;6154;51.550;12.138;2023-09-12T10:24:42;100178.59;;;32.03;47.71
12182;BME280;6154;51.550;12.138;2023-09-12T10:27:13;100185.87;;;32.09;48.53
12182;BME280;6154;51.550;12.138;2023-09-12T10:29:43;100186.56;;;32.04;47.20
12182;BME280;6154;51.550;12.138;2023-09-12T10:32:14;100183.66;;;32.18;47.14
12182;BME280;6154;51.550;12.138;2023-09-12T10:34:44;100181.22;;;32.28;47.64
12182;BME280;6154;51.550;12.138;2023-09-12T10:37:15;100185.41;;;32.30;46.24
12182;BME280;6154;51.550;12.138;2023-09-12T10:39:45;100178.16;;;32.36;46.55
12182;BME280;6154;51.550;12.138;2023-09-12T10:42:16;100177.19;;;32.12;46.01
12182;BME280;6154;51.550;12.138;2023-09-12T10:44:46;100168.25;;;32.35;46.53
12182;BME280;6154;51.550;12.138;2023-09-12T10:47:14;100165.50;;;32.35;46.48
12182;BME280;6154;51.550;12.138;2023-09-12T10:49:44;100163.09;;;32.57;46.94
12182;BME280;6154;51.550;12.138;2023-09-12T10:52:23;100169.03;;;32.66;46.59
12182;BME280;6154;51.550;12.138;2023-09-12T10:54:52;100176.69;;;32.75;43.61
12182;BME280;6154;51.550;12.138;2023-09-12T10:57:22;100168.78;;;32.97;46.23
12182;BME280;6154;51.550;12.138;2023-09-12T11:00:11;100164.72;;;33.00;46.10
12182;BME280;6154;51.550;12.138;2023-09-12T11:02:40;100165.56;;;33.00;43.61
12182;BME280;6154;51.550;12.138;2023-09-12T11:05:36;100172.47;;;33.03;46.30
12182;BME280;6154;51.550;12.138;2023-09-12T11:08:04;100161.97;;;33.11;42.78
12182;BME280;6154;51.550;12.138;2023-09-12T11:10:33;100166.97;;;33.14;45.94
12182;BME280;6154;51.550;12.138;2023-09-12T11:13:02;100169.13;;;33.24;45.96
12182;BME280;6154;51.550;12.138;2023-09-12T11:15:31;100166.84;;;33.33;44.83
12182;BME280;6154;51.550;12.138;2023-09-12T11:18:03;100155.84;;;33.56;45.69
12182;BME280;6154;51.550;12.138;2023-09-12T11:20:50;100151.91;;;33.64;44.65
12182;BME280;6154;51.550;12.138;2023-09-12T11:23:19;100149.06;;;33.59;42.09
12182;BME280;6154;51.550;12.138;2023-09-12T11:25:48;100151.41;;;33.67;45.42
12182;BME280;6154;51.550;12.138;2023-09-12T11:28:32;100145.78;;;33.73;45.37
12182;BME280;6154;51.550;12.138;2023-09-12T11:31:00;100146.41;;;33.87;45.15
12182;BME280;6154;51.550;12.138;2023-09-12T11:33:31;100155.44;;;34.16;44.99
12182;BME280;6154;51.550;12.138;2023-09-12T11:36:02;100157.12;;;34.17;44.69
12182;BME280;6154;51.550;12.138;2023-09-12T11:38:37;100153.97;;;34.25;44.82
12182;BME280;6154;51.550;12.138;2023-09-12T11:41:06;100161.12;;;34.10;44.70
12182;BME280;6154;51.550;12.138;2023-09-12T11:43:37;100154.19;;;34.07;44.96
12182;BME280;6154;51.550;12.138;2023-09-12T11:46:06;100168.38;;;33.87;43.21
12182;BME280;6154;51.550;12.138;2023-09-12T11:48:35;100161.44;;;33.73;44.83
12182;BME280;6154;51.550;12.138;2023-09-12T11:51:07;100160.09;;;33.76;44.65
12182;BME280;6154;51.550;12.138;2023-09-12T11:53:35;100158.06;;;33.83;44.20
12182;BME280;6154;51.550;12.138;2023-09-12T11:56:03;100161.16;;;33.86;44.79
12182;BME280;6154;51.550;12.138;2023-09-12T11:58:34;100166.16;;;34.01;44.71
12182;BME280;6154;51.550;12.138;2023-09-12T12:01:03;100158.31;;;34.21;44.80
12182;BME280;6154;51.550;12.138;2023-09-12T12:03:31;100159.22;;;34.39;44.70
12182;BME280;6154;51.550;12.138;2023-09-12T12:06:00;100166.44;;;34.45;44.25
12182;BME280;6154;51.550;12.138;2023-09-12T12:08:28;100161.75;;;34.28;44.16
12182;BME280;6154;51.550;12.138;2023-09-12T12:10:59;100154.09;;;34.30;44.56
12182;BME280;6154;51.550;12.138;2023-09-12T12:13:28;100151.63;;;34.17;43.88
12182;BME280;6154;51.550;12.138;2023-09-12T12:15:58;100157.12;;;34.17;44.63
12182;BME280;6154;51.550;12.138;2023-09-12T12:18:26;100149.56;;;34.24;44.42
12182;BME280;6154;51.550;12.138;2023-09-12T12:20:55;100149.09;;;34.27;44.39
12182;BME280;6154;51.550;12.138;2023-09-12T12:23:23;100152.87;;;34.26;44.37
12182;BME280;6154;51.550;12.138;2023-09-12T12:25:51;100156.38;;;34.22;44.44
12182;BME280;6154;51.550;12.138;2023-09-12T12:28:20;100153.31;;;34.18;44.48
12182;BME280;6154;51.550;12.138;2023-09-12T12:30:51;100156.38;;;33.93;44.63
12182;BME280;6154;51.550;12.138;2023-09-12T12:33:22;100152.47;;;33.89;43.75
12182;BME280;6154;51.550;12.138;2023-09-12T12:36:10;100167.03;;;33.90;44.79
12182;BME280;6154;51.550;12.138;2023-09-12T12:38:39;100165.81;;;33.97;44.84
12182;BME280;6154;51.550;12.138;2023-09-12T12:41:22;100162.78;;;34.11;44.77
12182;BME280;6154;51.550;12.138;2023-09-12T12:43:52;100160.09;;;34.27;43.89
12182;BME280;6154;51.550;12.138;2023-09-12T12:46:21;100154.22;;;34.52;44.74
12182;BME280;6154;51.550;12.138;2023-09-12T12:48:50;100146.63;;;34.76;44.39
12182;BME280;6154;51.550;12.138;2023-09-12T12:51:21;100141.56;;;35.02;44.17
12182;BME280;6154;51.550;12.138;2023-09-12T12:53:51;100143.53;;;35.23;43.82
12182;BME280;6154;51.550;12.138;2023-09-12T12:56:22;100131.44;;;35.24;43.43
12182;BME280;6154;51.550;12.138;2023-09-12T12:58:52;100126.84;;;35.30;43.35
12182;BME280;6154;51.550;12.138;2023-09-12T13:01:22;100125.75;;;35.31;43.43
12182;BME280;6154;51.550;12.138;2023-09-12T13:03:52;100125.50;;;35.32;43.48
12182;BME280;6154;51.550;12.138;2023-09-12T13:06:22;100129.03;;;35.28;42.38
12182;BME280;6154;51.550;12.138;2023-09-12T13:08:52;100124.22;;;35.18;43.54
12182;BME280;6154;51.550;12.138;2023-09-12T13:11:21;100119.41;;;35.30;43.52
12182;BME280;6154;51.550;12.138;2023-09-12T13:13:49;100126.19;;;35.39;43.33
12182;BME280;6154;51.550;12.138;2023-09-12T13:16:18;100117.44;;;35.48;43.11
12182;BME280;6154;51.550;12.138;2023-09-12T13:18:46;100117.53;;;35.53;42.81
12182;BME280;6154;51.550;12.138;2023-09-12T13:21:16;100114.47;;;35.49;43.10
12182;BME280;6154;51.550;12.138;2023-09-12T13:23:44;100110.63;;;35.50;43.06
12182;BME280;6154;51.550;12.138;2023-09-12T13:26:12;100113.81;;;35.64;43.02
12182;BME280;6154;51.550;12.138;2023-09-12T13:28:41;100105.66;;;35.74;42.74
12182;BME280;6154;51.550;12.138;2023-09-12T13:31:09;100100.25;;;35.84;42.37
12182;BME280;6154;51.550;12.138;2023-09-12T13:33:38;100107.12;;;35.82;42.29
12182;BME280;6154;51.550;12.138;2023-09-12T13:36:07;100112.72;;;35.65;42.37
12182;BME280;6154;51.550;12.138;2023-09-12T13:38:37;100111.69;;;35.71;42.03
12182;BME280;6154;51.550;12.138;2023-09-12T13:41:06;100105.66;;;35.74;42.18
12182;BME280;6154;51.550;12.138;2023-09-12T13:43:34;100106.44;;;35.69;41.71
12182;BME280;6154;51.550;12.138;2023-09-12T13:46:02;100107.47;;;35.63;42.16
12182;BME280;6154;51.550;12.138;2023-09-12T13:48:31;100102.78;;;35.64;42.10
12182;BME280;6154;51.550;12.138;2023-09-12T13:50:59;100091.31;;;35.72;41.83
12182;BME280;6154;51.550;12.138;2023-09-12T13:53:27;100082.38;;;35.60;42.01
12182;BME280;6154;51.550;12.138;2023-09-12T13:55:57;100088.50;;;35.67;42.13
12182;BME280;6154;51.550;12.138;2023-09-12T13:58:28;100093.12;;;35.61;41.37
12182;BME280;6154;51.550;12.138;2023-09-12T14:01:09;100087.44;;;35.68;42.04
12182;BME280;6154;51.550;12.138;2023-09-12T14:03:47;100092.28;;;35.61;41.98
12182;BME280;6154;51.550;12.138;2023-09-12T14:06:16;100089.28;;;35.62;41.87
12182;BME280;6154;51.550;12.138;2023-09-12T14:08:44;100087.31;;;35.58;41.79
12182;BME280;6154;51.550;12.138;2023-09-12T14:11:14;100082.19;;;35.45;41.82